createdAt,value
2018-07-06T00:00:08.734Z,4.90
2018-07-06T00:02:48.237Z,4.42
2018-07-06T00:05:27.927Z,5.30
2018-07-06T00:08:07.360Z,4.65
2018-07-06T00:10:46.827Z,4.28
2018-07-06T00:13:26.392Z,5.75
2018-07-06T00:16:06.057Z,5.50
2018-07-06T00:18:45.504Z,5.45
2018-07-06T00:21:25.073Z,5.05
2018-07-06T00:24:04.509Z,5.30
2018-07-06T00:26:44.044Z,6.30
2018-07-06T00:29:23.648Z,5.22
2018-07-06T00:32:03.278Z,4.85
2018-07-06T00:34:42.885Z,4.37
2018-07-06T00:37:22.409Z,5.42
2018-07-06T00:40:01.951Z,4.97
2018-07-06T00:42:41.338Z,5.00
2018-07-06T00:45:20.777Z,4.05
2018-07-06T00:48:01.041Z,4.08
2018-07-06T00:50:40.678Z,4.45
2018-07-06T00:53:20.189Z,4.45
2018-07-06T00:55:59.817Z,3.85
2018-07-06T00:58:39.380Z,4.17
2018-07-06T01:01:18.866Z,4.10
2018-07-06T01:03:58.461Z,3.33
2018-07-06T01:06:37.972Z,4.42
2018-07-06T01:09:17.549Z,3.15
2018-07-06T01:12:00.515Z,3.72
2018-07-06T01:14:39.978Z,3.90
2018-07-06T01:17:19.578Z,3.72
2018-07-06T01:19:59.096Z,3.80
2018-07-06T01:22:38.694Z,4.10
2018-07-06T01:25:18.214Z,4.05
2018-07-06T01:27:57.661Z,4.05
2018-07-06T01:30:37.246Z,4.55
2018-07-06T01:33:16.777Z,4.28
2018-07-06T01:35:56.311Z,4.17
2018-07-06T01:38:35.853Z,4.20
2018-07-06T01:41:15.463Z,4.65
2018-07-06T01:43:54.937Z,4.20
2018-07-06T01:46:34.486Z,4.53
2018-07-06T01:49:13.905Z,4.03
2018-07-06T01:51:53.512Z,3.90
2018-07-06T01:54:33.100Z,4.80
2018-07-06T01:57:12.765Z,5.25
2018-07-06T01:59:52.314Z,4.30
2018-07-06T02:02:31.773Z,5.62
2018-07-06T02:05:11.327Z,4.92
2018-07-06T02:07:50.812Z,4.80
2018-07-06T02:10:30.390Z,4.35
2018-07-06T02:13:09.842Z,4.60
2018-07-06T02:15:49.368Z,5.75
2018-07-06T02:18:28.733Z,6.30
2018-07-06T02:21:08.298Z,6.05
2018-07-06T02:23:47.785Z,5.62
2018-07-06T02:26:27.224Z,5.20
2018-07-06T02:29:06.780Z,6.20
2018-07-06T02:31:46.392Z,5.17
2018-07-06T02:34:25.882Z,5.67
2018-07-06T02:37:05.217Z,7.25
2018-07-06T02:39:44.747Z,8.25
2018-07-06T02:42:25.765Z,7.10
2018-07-06T02:45:05.389Z,6.05
2018-07-06T02:47:44.996Z,6.15
2018-07-06T02:50:24.625Z,6.95
2018-07-06T02:53:04.041Z,5.97
2018-07-06T02:55:44.165Z,6.00
2018-07-06T02:58:24.585Z,5.10
2018-07-06T03:01:04.117Z,5.92
2018-07-06T03:03:44.274Z,5.90
2018-07-06T03:06:24.030Z,6.22
2018-07-06T03:09:04.078Z,6.40
2018-07-06T03:11:43.553Z,5.80
2018-07-06T03:14:23.113Z,5.22
2018-07-06T03:17:02.646Z,5.10
2018-07-06T03:19:42.145Z,6.72
2018-07-06T03:22:21.767Z,5.90
2018-07-06T03:25:01.255Z,5.40
2018-07-06T03:27:40.845Z,6.50
2018-07-06T03:30:20.397Z,6.03
2018-07-06T03:32:59.929Z,6.65
2018-07-06T03:35:39.432Z,6.40
2018-07-06T03:38:19.097Z,7.10
2018-07-06T03:40:58.661Z,6.20
2018-07-06T03:43:38.180Z,7.42
2018-07-06T03:46:17.741Z,6.20
2018-07-06T03:48:57.343Z,5.90
2018-07-06T03:51:36.812Z,6.25
2018-07-06T03:54:16.336Z,7.20
2018-07-06T03:56:55.833Z,6.33
2018-07-06T03:59:35.369Z,6.20
2018-07-06T04:02:15.187Z,7.08
2018-07-06T04:04:54.612Z,5.70
2018-07-06T04:07:33.990Z,6.22
2018-07-06T04:10:13.765Z,6.53
2018-07-06T04:12:53.309Z,6.58
2018-07-06T04:15:32.788Z,7.40
2018-07-06T04:18:12.348Z,6.90
2018-07-06T04:20:51.807Z,5.78
2018-07-06T04:23:31.165Z,6.37
2018-07-06T04:26:10.590Z,6.37
2018-07-06T04:28:50.147Z,5.58
2018-07-06T04:31:29.724Z,5.70
2018-07-06T04:34:09.357Z,5.47
2018-07-06T04:36:48.930Z,6.20
2018-07-06T04:39:28.433Z,7.30
2018-07-06T04:42:07.918Z,5.28
2018-07-06T04:44:47.521Z,6.12
2018-07-06T04:47:26.940Z,6.50
2018-07-06T04:50:06.556Z,5.65
2018-07-06T04:52:46.149Z,6.17
2018-07-06T04:55:25.542Z,5.60
2018-07-06T04:58:05.029Z,5.67
2018-07-06T05:00:44.604Z,6.42
2018-07-06T05:03:24.172Z,6.75
2018-07-06T05:06:03.766Z,6.45
2018-07-06T05:08:44.296Z,5.97
2018-07-06T05:11:24.137Z,6.85
2018-07-06T05:14:03.830Z,6.55
2018-07-06T05:16:43.336Z,7.40
2018-07-06T05:19:22.799Z,6.92
2018-07-06T05:22:02.316Z,7.12
2018-07-06T05:27:32.895Z,5.80
2018-07-06T05:30:12.493Z,6.47
2018-07-06T05:32:52.161Z,7.15
2018-07-06T05:35:31.760Z,5.70
2018-07-06T05:38:11.337Z,6.25
2018-07-06T05:40:50.959Z,6.15
2018-07-06T05:43:30.574Z,6.22
2018-07-06T05:46:10.105Z,5.87
2018-07-06T05:48:49.736Z,6.10
2018-07-06T05:51:29.313Z,6.17
2018-07-06T05:54:08.883Z,6.60
2018-07-06T05:56:48.410Z,5.45
2018-07-06T05:59:27.823Z,5.87
2018-07-06T06:02:07.349Z,6.55
2018-07-06T06:04:53.709Z,6.33
2018-07-06T06:07:26.004Z,5.85
2018-07-06T06:09:54.331Z,6.30
2018-07-06T06:12:22.608Z,5.60
2018-07-06T06:14:51.670Z,5.85
2018-07-06T06:17:19.946Z,6.55
2018-07-06T06:19:48.369Z,6.78
2018-07-06T06:22:16.747Z,5.90
2018-07-06T06:24:44.984Z,5.60
2018-07-06T06:27:13.207Z,6.08
2018-07-06T06:29:41.496Z,7.22
2018-07-06T06:32:10.009Z,6.97
2018-07-06T06:34:38.225Z,6.75
2018-07-06T06:37:06.602Z,6.55
2018-07-06T06:39:34.871Z,7.30
2018-07-06T06:42:03.089Z,6.28
2018-07-06T06:44:31.373Z,6.65
2018-07-06T06:47:00.001Z,6.72
2018-07-06T06:49:29.493Z,7.75
2018-07-06T06:51:57.778Z,7.90
2018-07-06T06:54:26.278Z,7.12
2018-07-06T06:56:54.567Z,8.00
2018-07-06T06:59:23.458Z,7.58
2018-07-06T07:01:51.689Z,8.28
2018-07-06T07:04:20.058Z,8.80
2018-07-06T07:06:48.622Z,8.90
2018-07-06T07:09:16.842Z,9.95
2018-07-06T07:11:45.052Z,10.95
2018-07-06T07:14:13.349Z,11.18
2018-07-06T07:16:41.485Z,11.80
2018-07-06T07:19:10.700Z,10.63
2018-07-06T07:21:38.996Z,10.72
2018-07-06T07:24:08.297Z,9.00
2018-07-06T07:26:36.478Z,9.00
2018-07-06T07:29:04.645Z,8.10
2018-07-06T07:31:32.859Z,7.85
2018-07-06T07:34:01.073Z,8.05
2018-07-06T07:36:30.373Z,8.35
2018-07-06T07:38:58.566Z,7.85
2018-07-06T07:41:26.853Z,8.90
2018-07-06T07:43:55.244Z,8.28
2018-07-06T07:46:23.464Z,7.17
2018-07-06T07:48:51.723Z,7.60
2018-07-06T07:51:58.468Z,7.40
2018-07-06T07:54:32.295Z,8.13
2018-07-06T07:57:01.513Z,7.67
2018-07-06T07:59:30.940Z,7.25
2018-07-06T08:02:00.117Z,9.45
2018-07-06T08:04:28.397Z,7.55
2018-07-06T08:06:57.364Z,8.40
2018-07-06T08:09:25.840Z,9.00
2018-07-06T08:11:55.319Z,8.78
2018-07-06T08:14:23.810Z,8.23
2018-07-06T08:16:52.053Z,8.50
2018-07-06T08:19:20.873Z,8.13
2018-07-06T08:21:49.248Z,8.23
2018-07-06T08:24:17.895Z,7.45
2018-07-06T08:26:46.228Z,8.68
2018-07-06T08:29:14.469Z,8.05
2018-07-06T08:31:43.193Z,6.85
2018-07-06T08:34:22.878Z,7.60
2018-07-06T08:37:28.620Z,5.60
2018-07-06T08:39:57.535Z,5.30
2018-07-06T08:42:27.032Z,5.30
2018-07-06T08:44:56.074Z,6.67
2018-07-06T08:47:24.734Z,5.62
2018-07-06T08:49:53.618Z,5.70
2018-07-06T08:52:21.910Z,5.90
2018-07-06T08:54:50.956Z,5.27
2018-07-06T08:57:20.088Z,5.35
2018-07-06T08:59:50.385Z,5.35
2018-07-06T09:02:18.920Z,5.25
2018-07-06T09:04:48.222Z,5.12
2018-07-06T09:07:16.556Z,5.30
2018-07-06T09:09:44.868Z,4.55
2018-07-06T09:12:13.240Z,4.43
2018-07-06T09:14:41.808Z,5.67
2018-07-06T09:17:12.114Z,5.00
2018-07-06T09:19:41.690Z,5.20
2018-07-06T09:22:10.371Z,4.50
2018-07-06T09:24:38.858Z,5.03
2018-07-06T09:27:07.328Z,4.40
2018-07-06T09:29:35.769Z,4.43
2018-07-06T09:32:04.126Z,4.80
2018-07-06T09:34:32.281Z,4.97
2018-07-06T09:37:00.739Z,4.13
2018-07-06T09:39:29.429Z,4.30
2018-07-06T09:41:57.971Z,4.20
2018-07-06T09:44:26.380Z,4.67
2018-07-06T09:46:54.824Z,4.30
2018-07-06T09:49:23.659Z,4.33
2018-07-06T09:51:52.049Z,4.93
2018-07-06T09:54:20.502Z,4.13
2018-07-06T09:56:48.893Z,4.90
2018-07-06T09:59:17.131Z,3.83
2018-07-06T10:01:45.544Z,4.57
2018-07-06T10:04:13.842Z,4.23
2018-07-06T10:06:42.096Z,3.77
2018-07-06T10:09:10.941Z,3.80
2018-07-06T10:11:39.169Z,3.47
2018-07-06T10:14:07.974Z,3.70
2018-07-06T10:16:36.753Z,3.10
2018-07-06T10:19:05.132Z,3.30
2018-07-06T10:21:33.488Z,4.73
2018-07-06T10:24:01.740Z,3.50
2018-07-06T10:26:29.953Z,3.47
2018-07-06T10:30:06.476Z,3.73
2018-07-06T10:32:34.766Z,3.50
2018-07-06T10:35:02.938Z,3.77
2018-07-06T10:37:31.333Z,2.80
2018-07-06T10:39:59.627Z,3.93
2018-07-06T10:42:27.814Z,2.60
2018-07-06T10:44:56.052Z,3.07
2018-07-06T10:47:24.260Z,3.60
2018-07-06T10:49:52.695Z,4.50
2018-07-06T10:52:20.901Z,2.93
2018-07-06T10:54:49.088Z,3.40
2018-07-06T10:57:17.372Z,3.27
2018-07-06T10:59:45.623Z,3.20
2018-07-06T11:02:13.879Z,2.37
2018-07-06T11:04:42.062Z,3.37
2018-07-06T11:07:10.337Z,3.60
2018-07-06T11:09:38.636Z,3.40
2018-07-06T11:12:07.117Z,2.37
2018-07-06T11:14:35.441Z,3.53
2018-07-06T11:17:03.649Z,3.77
2018-07-06T11:19:31.848Z,4.13
2018-07-06T11:22:00.276Z,2.87
2018-07-06T11:24:28.993Z,3.27
2018-07-06T11:26:57.288Z,3.20
2018-07-06T11:29:25.541Z,2.60
2018-07-06T11:31:54.263Z,2.53
2018-07-06T11:34:22.470Z,3.13
2018-07-06T11:36:50.761Z,3.20
2018-07-06T11:39:20.185Z,2.87
2018-07-06T11:41:48.460Z,2.80
2018-07-06T11:44:18.953Z,2.40
2018-07-06T11:46:47.577Z,3.23
2018-07-06T11:49:15.787Z,2.00
2018-07-06T11:51:44.069Z,2.17
2018-07-06T11:54:12.293Z,2.90
2018-07-06T11:56:40.582Z,2.60
2018-07-06T11:59:08.859Z,2.70
2018-07-06T12:01:37.172Z,2.63
2018-07-06T12:04:05.494Z,2.73
2018-07-06T12:06:33.648Z,2.93
2018-07-06T12:09:01.865Z,2.70
2018-07-06T12:11:30.248Z,2.97
2018-07-06T12:13:59.010Z,3.07
2018-07-06T12:16:27.334Z,2.53
2018-07-06T12:18:55.918Z,3.00
2018-07-06T12:21:24.249Z,2.27
2018-07-06T12:23:52.384Z,2.30
2018-07-06T12:26:21.248Z,2.80
2018-07-06T12:28:49.501Z,2.57
2018-07-06T12:31:17.749Z,2.97
2018-07-06T12:33:45.900Z,2.50
2018-07-06T12:36:14.072Z,3.00
2018-07-06T12:38:42.280Z,2.40
2018-07-06T12:41:10.558Z,2.80
2018-07-06T12:43:38.829Z,2.90
2018-07-06T12:46:07.082Z,1.80
2018-07-06T12:48:35.232Z,2.90
2018-07-06T12:51:03.433Z,3.47
2018-07-06T12:53:31.644Z,2.33
2018-07-06T12:55:59.860Z,2.77
2018-07-06T12:58:28.163Z,2.03
2018-07-06T13:00:56.280Z,2.23
2018-07-06T13:03:24.456Z,3.03
2018-07-06T13:05:52.664Z,2.30
2018-07-06T13:08:21.151Z,2.03
2018-07-06T13:10:49.377Z,2.40
2018-07-06T13:13:17.693Z,2.77
2018-07-06T13:15:46.068Z,2.20
2018-07-06T13:18:14.269Z,4.47
2018-07-06T13:20:42.563Z,3.10
2018-07-06T13:23:10.710Z,1.80
2018-07-06T13:25:39.357Z,1.90
2018-07-06T13:28:07.518Z,3.17
2018-07-06T13:30:36.277Z,3.07
2018-07-06T13:33:04.864Z,2.03
2018-07-06T13:35:33.080Z,2.40
2018-07-06T13:38:01.291Z,3.00
2018-07-06T13:40:29.553Z,2.50
2018-07-06T13:42:57.743Z,2.57
2018-07-06T13:45:25.944Z,2.50
2018-07-06T13:47:54.196Z,2.47
2018-07-06T13:50:22.339Z,3.23
2018-07-06T13:52:51.471Z,2.53
2018-07-06T13:55:19.687Z,2.63
2018-07-06T13:57:48.192Z,2.37
2018-07-06T14:00:16.388Z,2.80
2018-07-06T14:02:44.584Z,2.97
2018-07-06T14:05:13.055Z,2.60
2018-07-06T14:07:41.500Z,2.40
2018-07-06T14:10:10.161Z,2.63
2018-07-06T14:12:38.387Z,2.47
2018-07-06T14:15:07.383Z,2.50
2018-07-06T14:17:35.807Z,2.23
2018-07-06T14:20:03.958Z,2.63
2018-07-06T14:22:32.135Z,2.83
2018-07-06T14:25:00.300Z,2.10
2018-07-06T14:27:28.494Z,2.40
2018-07-06T14:29:56.804Z,2.70
2018-07-06T14:32:24.943Z,2.10
2018-07-06T14:34:53.156Z,2.67
2018-07-06T14:37:21.320Z,2.73
2018-07-06T14:39:49.602Z,2.43
2018-07-06T14:42:18.081Z,2.40
2018-07-06T14:44:46.242Z,2.40
2018-07-06T14:47:14.429Z,3.50
2018-07-06T14:49:42.657Z,2.83
2018-07-06T14:52:10.897Z,2.53
2018-07-06T14:54:39.177Z,2.93
2018-07-06T14:57:07.426Z,2.53
2018-07-06T14:59:35.604Z,2.23
2018-07-06T15:02:03.797Z,2.27
2018-07-06T15:04:32.044Z,3.00
2018-07-06T15:07:00.289Z,2.13
2018-07-06T15:09:28.510Z,1.97
2018-07-06T15:11:56.698Z,2.77
2018-07-06T15:14:24.941Z,2.33
2018-07-06T15:16:53.091Z,2.30
2018-07-06T15:19:21.653Z,2.30
2018-07-06T15:21:49.916Z,2.37
2018-07-06T15:24:18.205Z,3.27
2018-07-06T15:26:46.370Z,2.30
2018-07-06T15:29:14.551Z,2.37
2018-07-06T15:31:46.042Z,2.37
2018-07-06T15:34:14.318Z,2.37
2018-07-06T15:36:42.453Z,3.00
2018-07-06T15:39:10.644Z,3.07
2018-07-06T15:41:38.831Z,2.60
2018-07-06T15:44:07.041Z,2.40
2018-07-06T15:46:35.210Z,2.83
2018-07-06T15:49:03.367Z,2.43
2018-07-06T15:51:31.524Z,3.17
2018-07-06T15:54:02.758Z,3.10
2018-07-06T15:56:31.217Z,2.50
2018-07-06T15:58:59.477Z,3.10
2018-07-06T16:01:27.763Z,2.37
2018-07-06T16:03:56.260Z,3.13
2018-07-06T16:06:24.452Z,3.60
2018-07-06T16:08:52.689Z,2.33
2018-07-06T16:11:20.977Z,2.97
2018-07-06T16:13:49.465Z,2.63
2018-07-06T16:16:18.570Z,3.40
2018-07-06T16:18:46.944Z,2.90
2018-07-06T16:21:15.780Z,3.73
2018-07-06T16:23:44.231Z,2.80
2018-07-06T16:26:12.432Z,2.67
2018-07-06T16:28:40.682Z,2.80
2018-07-06T16:31:08.889Z,2.80
2018-07-06T16:33:37.142Z,2.30
2018-07-06T16:36:05.481Z,2.30
2018-07-06T16:38:33.661Z,3.07
2018-07-06T16:41:01.993Z,2.33
2018-07-06T16:43:30.314Z,3.10
2018-07-06T16:45:58.505Z,2.67
2018-07-06T16:48:26.652Z,3.23
2018-07-06T16:50:54.866Z,2.53
2018-07-06T16:53:23.585Z,2.73
2018-07-06T16:55:51.804Z,3.17
2018-07-06T16:58:20.017Z,3.03
2018-07-06T17:00:48.257Z,2.80
2018-07-06T17:03:16.477Z,2.87
2018-07-06T17:05:44.651Z,3.37
2018-07-06T17:08:12.791Z,2.33
2018-07-06T17:10:40.986Z,2.85
2018-07-06T17:13:09.253Z,2.80
2018-07-06T17:15:37.492Z,3.83
2018-07-06T17:18:05.656Z,3.53
2018-07-06T17:20:34.425Z,2.40
2018-07-06T17:23:02.655Z,2.30
2018-07-06T17:25:30.885Z,2.30
2018-07-06T17:27:59.282Z,2.50
2018-07-06T17:30:27.907Z,2.80
2018-07-06T17:32:56.078Z,3.42
2018-07-06T17:35:25.159Z,3.17
2018-07-06T17:37:53.599Z,2.72
2018-07-06T17:40:22.129Z,2.45
2018-07-06T17:42:50.358Z,2.75
2018-07-06T17:45:18.544Z,3.55
2018-07-06T17:47:46.791Z,3.10
2018-07-06T17:50:14.990Z,3.22
2018-07-06T17:52:43.268Z,3.20
2018-07-06T17:55:11.624Z,2.40
2018-07-06T17:57:39.868Z,2.62
2018-07-06T18:00:08.174Z,3.00
2018-07-06T18:02:36.363Z,2.58
2018-07-06T18:05:04.590Z,3.02
2018-07-06T18:07:32.933Z,2.65
2018-07-06T18:10:01.110Z,2.77
2018-07-06T18:12:29.281Z,3.20
2018-07-06T18:14:57.566Z,3.25
2018-07-06T18:17:25.901Z,2.83
2018-07-06T18:19:56.712Z,3.22
2018-07-06T18:22:25.089Z,2.90
2018-07-06T18:24:53.526Z,3.72
2018-07-06T18:27:21.826Z,2.98
2018-07-06T18:29:50.077Z,3.58
2018-07-06T18:32:18.307Z,3.17
2018-07-06T18:34:46.621Z,2.72
2018-07-06T18:37:15.244Z,4.33
2018-07-06T18:39:43.652Z,3.30
2018-07-06T18:42:11.927Z,3.98
2018-07-06T18:44:40.187Z,3.85
2018-07-06T18:47:08.630Z,3.45
2018-07-06T18:49:36.878Z,3.55
2018-07-06T18:52:05.729Z,2.90
2018-07-06T18:54:34.184Z,3.30
2018-07-06T18:57:02.789Z,3.20
2018-07-06T18:59:31.015Z,3.47
2018-07-06T19:01:59.295Z,4.08
2018-07-06T19:04:27.528Z,3.42
2018-07-06T19:06:55.727Z,2.95
2018-07-06T19:09:23.997Z,4.08
2018-07-06T19:11:52.589Z,3.77
2018-07-06T19:14:20.899Z,3.77
2018-07-06T19:16:49.429Z,3.37
2018-07-06T19:19:17.898Z,2.90
2018-07-06T19:21:46.133Z,3.20
2018-07-06T19:24:14.583Z,3.22
2018-07-06T19:26:42.943Z,3.42
2018-07-06T19:29:11.209Z,3.60
2018-07-06T19:31:40.178Z,4.70
2018-07-06T19:34:16.774Z,2.70
2018-07-06T19:36:45.068Z,3.05
2018-07-06T19:39:14.802Z,3.42
2018-07-06T19:41:43.894Z,3.05
2018-07-06T19:44:12.389Z,2.98
2018-07-06T19:46:41.465Z,3.30
2018-07-06T19:49:10.689Z,3.22
2018-07-06T19:51:39.360Z,3.62
2018-07-06T19:54:08.257Z,4.00
2018-07-06T19:56:36.680Z,3.60
2018-07-06T19:59:05.208Z,4.65
2018-07-06T20:01:33.541Z,3.83
2018-07-06T20:04:01.767Z,3.40
2018-07-06T20:06:31.422Z,4.35
2018-07-06T20:08:59.762Z,4.20
2018-07-06T20:11:28.443Z,4.00
2018-07-06T20:13:56.919Z,4.70
2018-07-06T20:16:25.506Z,3.58
2018-07-06T20:18:54.132Z,3.52
2018-07-06T20:21:22.753Z,3.62
2018-07-06T20:23:51.405Z,3.27
2018-07-06T20:26:20.803Z,4.00
2018-07-06T20:28:49.358Z,2.92
2018-07-06T20:31:19.039Z,4.45
2018-07-06T20:33:50.489Z,3.65
2018-07-06T20:36:19.188Z,3.77
2018-07-06T20:38:49.165Z,3.90
2018-07-06T20:41:17.424Z,4.97
2018-07-06T20:43:45.909Z,3.83
2018-07-06T20:46:14.532Z,4.75
2018-07-06T20:48:43.036Z,3.08
2018-07-06T20:51:11.328Z,5.12
2018-07-06T20:53:39.807Z,3.55
2018-07-06T20:56:08.322Z,3.98
2018-07-06T20:58:37.296Z,3.95
2018-07-06T21:01:05.826Z,3.65
2018-07-06T21:03:34.329Z,3.95
2018-07-06T21:06:02.838Z,4.42
2018-07-06T21:08:32.325Z,4.72
2018-07-06T21:11:01.025Z,4.12
2018-07-06T21:13:29.409Z,4.17
2018-07-06T21:15:58.926Z,3.90
2018-07-06T21:18:27.385Z,4.67
2018-07-06T21:20:55.735Z,4.70
2018-07-06T21:23:24.466Z,4.58
2018-07-06T21:25:53.132Z,3.85
2018-07-06T21:28:21.837Z,3.70
2018-07-06T21:30:50.423Z,4.00
2018-07-06T21:33:19.052Z,3.85
2018-07-06T21:35:47.955Z,3.90
2018-07-06T21:38:16.883Z,4.60
2018-07-06T21:40:45.375Z,4.08
2018-07-06T21:43:14.012Z,4.40
2018-07-06T21:45:42.641Z,3.35
2018-07-06T21:48:11.619Z,4.30
2018-07-06T21:50:40.317Z,4.75
2018-07-06T21:53:08.804Z,3.62
2018-07-06T21:55:37.402Z,4.37
2018-07-06T21:58:05.756Z,4.65
2018-07-06T22:00:42.146Z,4.20
2018-07-06T22:03:11.273Z,4.35
2018-07-06T22:05:41.431Z,4.78
2018-07-06T22:08:10.198Z,4.17
2018-07-06T22:10:38.868Z,4.00
2018-07-06T22:13:08.020Z,5.20
2018-07-06T22:15:43.524Z,3.90
2018-07-06T22:18:13.360Z,3.72
2018-07-06T22:20:42.701Z,4.20
2018-07-06T22:23:11.191Z,4.10
2018-07-06T22:25:40.078Z,3.55
2018-07-06T22:28:08.516Z,3.75
2018-07-06T22:30:36.952Z,4.42
2018-07-06T22:33:05.492Z,4.00
2018-07-06T22:35:33.977Z,3.60
2018-07-06T22:38:02.686Z,3.72
2018-07-06T22:40:31.174Z,4.28
2018-07-06T22:42:59.670Z,4.85
2018-07-06T22:45:27.989Z,4.10
2018-07-06T22:47:56.348Z,3.55
2018-07-06T22:50:25.133Z,4.37
2018-07-06T22:52:53.401Z,4.10
2018-07-06T22:55:21.703Z,3.83
2018-07-06T22:57:50.248Z,4.67
2018-07-06T23:00:18.684Z,4.85
2018-07-06T23:02:48.471Z,4.33
2018-07-06T23:05:18.153Z,4.45
2018-07-06T23:07:46.885Z,4.17
2018-07-06T23:10:15.104Z,4.75
2018-07-06T23:12:43.477Z,4.42
2018-07-06T23:15:11.930Z,5.42
2018-07-06T23:17:40.640Z,4.40
2018-07-06T23:20:08.993Z,3.72
2018-07-06T23:23:11.548Z,4.60
2018-07-06T23:25:41.290Z,6.50
2018-07-06T23:28:09.637Z,4.40
2018-07-06T23:30:38.032Z,4.80
2018-07-06T23:33:07.320Z,3.62
2018-07-06T23:35:36.577Z,5.30
2018-07-06T23:38:04.932Z,3.95
2018-07-06T23:40:33.481Z,4.70
2018-07-06T23:43:01.901Z,4.95
2018-07-06T23:45:30.216Z,4.55
2018-07-06T23:47:58.515Z,4.37
2018-07-06T23:50:26.864Z,4.08
2018-07-06T23:52:55.344Z,4.20
2018-07-06T23:55:23.942Z,3.92
2018-07-06T23:57:52.271Z,4.78
